Time;durP1;ratioP1;P1;durP2;ratioP2;P2;SDS_P1;SDS_P2;PMS_P1;PMS_P2;Temp;Humidity;BMP_temperature;BMP_pressure;BME280_temperature;BME280_humidity;BME280_pressure;Samples;Min_cycle;Max_cycle;Signal;HPM_P1;HPM_P2
2023/05/06 00:00:55;;;;;;;10.63;7.57;;;13.20;99.90;;;;;;5063067;28;20087;-67
2023/05/06 00:03:21;;;;;;;7.78;6.72;;;13.20;99.90;;;;;;5062965;28;20064;-67
2023/05/06 00:05:48;;;;;;;7.38;6.55;;;13.20;99.90;;;;;;5063374;28;20319;-66
2023/05/06 00:08:14;;;;;;;6.70;5.80;;;13.20;99.90;;;;;;5062864;28;20033;-66
2023/05/06 00:10:40;;;;;;;7.47;6.10;;;13.20;99.90;;;;;;5063445;28;20043;-67
2023/05/06 00:13:07;;;;;;;8.38;6.00;;;13.20;99.90;;;;;;5062149;28;20041;-66
2023/05/06 00:15:33;;;;;;;7.22;6.00;;;13.10;99.90;;;;;;5045658;28;20040;-66
2023/05/06 00:18:00;;;;;;;11.15;6.30;;;13.10;99.90;;;;;;5062167;28;20029;-66
2023/05/06 00:20:26;;;;;;;8.82;5.97;;;13.00;99.90;;;;;;5062129;28;20032;-65
2023/05/06 00:22:52;;;;;;;9.93;6.13;;;13.00;99.90;;;;;;5062094;28;20020;-67
2023/05/06 00:25:18;;;;;;;7.97;5.90;;;13.00;99.90;;;;;;5062029;28;20044;-66
2023/05/06 00:27:44;;;;;;;7.22;6.32;;;13.00;99.90;;;;;;5062701;28;20037;-66
2023/05/06 00:30:11;;;;;;;8.23;5.50;;;12.90;99.90;;;;;;5061099;28;20040;-66
2023/05/06 00:32:37;;;;;;;6.47;5.10;;;13.00;99.90;;;;;;5058577;28;20056;-66
2023/05/06 00:35:03;;;;;;;6.10;5.30;;;12.90;99.90;;;;;;5059443;28;20029;-67
2023/05/06 00:37:29;;;;;;;7.00;5.60;;;12.90;99.90;;;;;;5059800;28;20072;-67
2023/05/06 00:39:55;;;;;;;7.03;5.78;;;13.00;99.90;;;;;;5059483;28;20107;-67
2023/05/06 00:42:22;;;;;;;7.13;5.50;;;13.00;99.90;;;;;;5058619;28;20032;-67
2023/05/06 00:44:48;;;;;;;5.82;5.25;;;12.90;99.90;;;;;;5042184;28;20408;-67
2023/05/06 00:47:16;;;;;;;8.02;5.07;;;12.80;99.90;;;;;;5059435;28;20040;-67
2023/05/06 00:49:41;;;;;;;8.77;5.05;;;12.70;99.90;;;;;;5059292;28;20056;-67
2023/05/06 00:52:08;;;;;;;5.72;4.97;;;12.70;99.90;;;;;;5042058;28;20043;-67
2023/05/06 00:54:34;;;;;;;9.48;5.40;;;12.70;99.90;;;;;;5059152;28;20104;-67
2023/05/06 00:57:01;;;;;;;6.07;4.80;;;12.80;99.90;;;;;;5059587;28;20369;-67
2023/05/06 00:59:27;;;;;;;6.18;5.00;;;12.80;99.90;;;;;;5058491;28;20424;-67
2023/05/06 01:01:53;;;;;;;5.97;4.80;;;12.80;99.90;;;;;;5058247;28;20073;-67
2023/05/06 01:04:22;;;;;;;5.75;4.43;;;12.80;99.90;;;;;;5058208;28;20048;-67
2023/05/06 01:07:07;;;;;;;5.03;4.50;;;12.80;99.90;;;;;;5059014;28;20036;-68
2023/05/06 01:09:49;;;;;;;6.20;4.50;;;12.80;99.90;;;;;;5058365;28;20060;-67
2023/05/06 01:12:24;;;;;;;;;;;12.80;99.90;;;;;;5059291;28;20380;-67
2023/05/06 01:15:15;;;;;;;8.30;4.70;;;12.70;99.90;;;;;;5058814;28;19920;-67
2023/05/06 01:17:45;;;;;;;7.07;4.45;;;12.70;99.90;;;;;;5059320;28;20029;-67
2023/05/06 01:20:14;;;;;;;6.32;4.50;;;12.80;99.90;;;;;;5058020;28;20286;-66
2023/05/06 01:22:40;;;;;;;5.85;4.60;;;12.80;99.90;;;;;;5057919;28;20017;-67
2023/05/06 01:25:06;;;;;;;6.72;4.80;;;12.70;99.90;;;;;;5059024;28;20286;-67
2023/05/06 01:27:32;;;;;;;6.45;5.03;;;12.80;99.90;;;;;;5058562;28;20301;-67
2023/05/06 01:29:59;;;;;;;6.18;4.60;;;12.80;99.90;;;;;;5057812;28;20040;-67
2023/05/06 01:32:34;;;;;;;4.85;4.07;;;12.70;99.90;;;;;;5058533;28;20087;-67
2023/05/06 01:35:19;;;;;;;6.20;4.55;;;12.70;99.90;;;;;;5058555;28;20040;-67
2023/05/06 01:37:55;;;;;;;6.00;4.47;;;12.60;99.90;;;;;;5057626;28;20033;-67
2023/05/06 01:40:25;;;;;;;5.22;4.50;;;12.60;99.90;;;;;;5058427;28;20409;-67
2023/05/06 01:42:51;;;;;;;5.68;4.18;;;12.50;99.90;;;;;;5057449;28;20017;-67
2023/05/06 01:45:19;;;;;;;5.38;4.45;;;12.60;99.90;;;;;;5057669;28;20075;-67
2023/05/06 01:47:46;;;;;;;6.55;4.28;;;12.50;99.90;;;;;;5057506;28;20037;-67
2023/05/06 01:50:12;;;;;;;5.57;4.20;;;12.50;99.90;;;;;;5057527;28;20044;-68
2023/05/06 01:52:38;;;;;;;5.13;4.07;;;12.40;99.90;;;;;;5058098;28;20051;-67
2023/05/06 01:55:05;;;;;;;6.22;4.13;;;12.40;99.90;;;;;;5058565;28;20045;-67
2023/05/06 01:57:31;;;;;;;6.43;4.75;;;12.40;99.90;;;;;;5057722;28;20369;-67
2023/05/06 01:59:57;;;;;;;6.28;4.45;;;12.30;99.90;;;;;;5057190;28;20137;-67
2023/05/06 02:02:23;;;;;;;8.90;4.85;;;12.40;99.90;;;;;;5057484;28;20044;-67
2023/05/06 02:04:52;;;;;;;9.77;4.70;;;12.40;99.90;;;;;;5057690;28;20052;-66
2023/05/06 02:07:18;;;;;;;9.25;4.90;;;12.40;99.90;;;;;;5057183;28;20040;-67
2023/05/06 02:09:44;;;;;;;6.88;4.63;;;12.40;99.90;;;;;;5057765;28;20044;-67
2023/05/06 02:12:10;;;;;;;6.32;5.18;;;12.40;99.90;;;;;;5057027;28;20036;-67
2023/05/06 02:14:36;;;;;;;7.18;4.65;;;12.30;99.90;;;;;;5040245;28;20059;-67
2023/05/06 02:17:06;;;;;;;6.78;4.82;;;12.40;99.90;;;;;;5056914;28;20029;-67
2023/05/06 02:19:33;;;;;;;5.25;4.47;;;12.30;99.90;;;;;;5056856;28;20111;-67
2023/05/06 02:21:58;;;;;;;5.72;4.35;;;12.30;99.90;;;;;;5056760;28;20304;-68
2023/05/06 02:24:25;;;;;;;5.72;4.88;;;12.30;99.90;;;;;;5056766;28;20025;-67
2023/05/06 02:26:51;;;;;;;7.57;4.75;;;12.20;99.90;;;;;;5057396;28;20052;-67
2023/05/06 02:29:17;;;;;;;6.60;4.88;;;12.20;99.90;;;;;;5056793;28;20071;-68
2023/05/06 02:31:43;;;;;;;6.95;5.43;;;12.20;99.90;;;;;;5040126;28;20347;-67
2023/05/06 02:34:09;;;;;;;5.20;4.65;;;12.30;99.90;;;;;;5056496;28;20029;-68
2023/05/06 02:36:35;;;;;;;8.00;5.03;;;12.20;99.90;;;;;;5056645;28;20300;-67
2023/05/06 02:39:01;;;;;;;6.75;5.10;;;12.30;99.90;;;;;;5057343;28;20029;-67
2023/05/06 02:41:27;;;;;;;8.50;4.68;;;12.20;99.90;;;;;;5057283;28;20363;-66
2023/05/06 02:43:52;;;;;;;7.57;5.07;;;12.30;99.90;;;;;;5056714;28;20040;-67
2023/05/06 02:46:18;;;;;;;9.30;5.07;;;12.30;99.90;;;;;;5056415;28;20048;-67
2023/05/06 02:48:45;;;;;;;7.38;5.00;;;12.20;99.90;;;;;;5056371;28;20131;-67
2023/05/06 02:51:11;;;;;;;8.32;5.15;;;12.20;99.90;;;;;;5056488;28;20025;-67
2023/05/06 02:53:37;;;;;;;9.00;5.18;;;12.20;99.90;;;;;;5055791;28;20045;-67
2023/05/06 02:56:03;;;;;;;7.97;5.20;;;12.20;99.90;;;;;;5056989;28;20551;-68
2023/05/06 02:58:29;;;;;;;8.90;5.40;;;12.20;99.90;;;;;;5056297;28;20024;-67
2023/05/06 03:00:55;;;;;;;9.68;5.55;;;12.20;99.90;;;;;;5056774;28;20407;-67
2023/05/06 03:03:21;;;;;;;6.65;5.15;;;12.20;99.90;;;;;;5055938;28;20108;-67
2023/05/06 03:05:47;;;;;;;8.45;4.93;;;12.10;99.90;;;;;;5056201;28;20128;-68
2023/05/06 03:08:12;;;;;;;7.45;5.13;;;12.20;99.90;;;;;;5056858;28;20171;-67
2023/05/06 03:10:39;;;;;;;8.05;4.95;;;12.10;99.90;;;;;;5056051;28;20379;-68
2023/05/06 03:13:04;;;;;;;7.68;4.97;;;12.00;99.90;;;;;;5056017;28;20122;-68
2023/05/06 03:15:31;;;;;;;5.35;4.63;;;12.10;99.90;;;;;;5056031;28;20033;-68
2023/05/06 03:17:56;;;;;;;7.60;5.10;;;11.80;99.90;;;;;;5055962;28;20145;-68
2023/05/06 03:20:23;;;;;;;5.95;4.57;;;11.90;99.90;;;;;;5056305;28;20141;-68
2023/05/06 03:22:54;;;;;;;6.75;5.60;;;11.90;99.90;;;;;;5023850;28;20286;-68
2023/05/06 03:25:21;;;;;;;8.02;5.18;;;11.80;99.90;;;;;;5039651;28;20043;-68
2023/05/06 03:27:46;;;;;;;7.88;5.35;;;11.80;99.90;;;;;;5055850;28;20379;-68
2023/05/06 03:30:17;;;;;;;6.75;5.35;;;11.80;99.90;;;;;;5055952;28;20033;-68
2023/05/06 03:32:44;;;;;;;9.35;5.30;;;11.80;99.90;;;;;;5039538;28;20029;-68
2023/05/06 03:35:13;;;;;;;8.57;5.85;;;11.90;99.90;;;;;;5055777;28;20029;-68
2023/05/06 03:37:42;;;;;;;9.77;6.03;;;11.80;99.90;;;;;;5040107;28;20036;-68
2023/05/06 03:40:08;;;;;;;10.20;5.45;;;11.80;99.90;;;;;;5055739;28;20029;-68
2023/05/06 03:42:34;;;;;;;9.30;5.50;;;11.80;99.90;;;;;;5055820;28;20029;-68
2023/05/06 03:45:01;;;;;;;8.50;5.47;;;11.80;99.90;;;;;;5055729;28;20349;-68
2023/05/06 03:47:30;;;;;;;7.75;5.22;;;11.80;99.90;;;;;;5056561;28;20036;-68
2023/05/06 03:49:56;;;;;;;7.93;4.97;;;11.70;99.90;;;;;;5039174;28;20035;-68
2023/05/06 03:52:22;;;;;;;7.75;5.10;;;11.70;99.90;;;;;;5056213;28;20353;-68
2023/05/06 03:54:48;;;;;;;6.75;4.88;;;11.70;99.90;;;;;;5056274;28;20095;-68
2023/05/06 03:57:14;;;;;;;8.20;5.57;;;11.80;99.90;;;;;;5056233;28;20416;-68
2023/05/06 03:59:42;;;;;;;7.75;5.20;;;11.70;99.90;;;;;;5055609;28;20175;-68
2023/05/06 04:02:08;;;;;;;9.48;5.20;;;11.60;99.90;;;;;;5055358;28;20424;-67
2023/05/06 04:04:36;;;;;;;9.32;6.03;;;11.60;99.90;;;;;;5054725;28;20107;-68
2023/05/06 04:07:02;;;;;;;7.45;5.30;;;11.60;99.90;;;;;;5057834;28;20033;-68
2023/05/06 04:09:28;;;;;;;9.75;5.88;;;11.60;99.90;;;;;;5059689;28;20036;-68
2023/05/06 04:11:54;;;;;;;11.85;5.47;;;11.60;99.90;;;;;;5059100;28;20041;-67
2023/05/06 04:14:20;;;;;;;8.00;5.22;;;11.60;99.90;;;;;;5059225;28;20036;-68
2023/05/06 04:16:47;;;;;;;9.25;5.80;;;11.60;99.90;;;;;;5058833;28;20446;-67
2023/05/06 04:19:13;;;;;;;6.57;5.32;;;11.60;99.90;;;;;;5042487;28;20032;-68
2023/05/06 04:21:39;;;;;;;9.18;5.47;;;11.60;99.90;;;;;;5059005;28;20033;-68
2023/05/06 04:24:08;;;;;;;8.57;5.43;;;11.60;99.90;;;;;;5042780;28;20039;-67
2023/05/06 04:26:37;;;;;;;10.85;5.70;;;11.70;99.90;;;;;;5026826;28;20037;-68
2023/05/06 04:29:04;;;;;;;8.65;6.00;;;11.70;99.90;;;;;;5042282;28;20037;-68
2023/05/06 04:31:33;;;;;;;14.57;6.13;;;11.70;99.90;;;;;;5059127;28;20381;-68
2023/05/06 04:34:03;;;;;;;8.77;6.07;;;11.90;99.90;;;;;;5058903;28;20043;-68
2023/05/06 04:36:29;;;;;;;10.40;6.18;;;12.00;99.90;;;;;;5059056;28;20037;-68
2023/05/06 04:39:20;;;;;;;12.52;5.82;;;11.90;99.90;;;;;;5045670;28;20120;-68
2023/05/06 04:41:48;;;;;;;6.78;5.13;;;11.90;99.90;;;;;;5042219;28;20388;-67
2023/05/06 04:44:18;;;;;;;9.38;5.43;;;12.00;99.90;;;;;;5059660;28;20025;-67
2023/05/06 04:46:46;;;;;;;8.95;5.82;;;12.00;99.90;;;;;;5042302;28;20384;-67
2023/05/06 04:49:13;;;;;;;10.60;5.80;;;11.90;99.90;;;;;;5042242;28;20339;-68
2023/05/06 04:51:39;;;;;;;12.43;6.60;;;12.00;99.90;;;;;;5042144;28;20348;-68
2023/05/06 04:54:05;;;;;;;11.05;6.97;;;12.00;99.90;;;;;;5041886;28;20037;-68
2023/05/06 04:56:32;;;;;;;11.07;7.00;;;12.00;99.90;;;;;;5058509;28;20033;-68
2023/05/06 04:58:58;;;;;;;10.05;6.32;;;12.00;99.90;;;;;;5058433;28;20124;-68
2023/05/06 05:01:25;;;;;;;10.88;6.55;;;11.90;99.90;;;;;;5058372;28;20040;-68
2023/05/06 05:03:51;;;;;;;9.00;5.93;;;12.00;99.90;;;;;;5041511;28;20309;-68
2023/05/06 05:06:19;;;;;;;12.57;6.50;;;12.00;99.90;;;;;;5058122;28;20094;-68
2023/05/06 05:08:46;;;;;;;11.30;5.97;;;12.10;99.90;;;;;;5058093;28;20072;-68
2023/05/06 05:11:12;;;;;;;9.93;5.80;;;12.20;99.90;;;;;;5058905;28;20036;-68
2023/05/06 05:13:38;;;;;;;11.38;6.40;;;12.30;99.90;;;;;;5058046;28;20069;-69
2023/05/06 05:16:05;;;;;;;9.00;5.70;;;12.30;99.90;;;;;;5057544;28;20407;-68
2023/05/06 05:18:33;;;;;;;12.00;6.00;;;12.30;99.90;;;;;;5057712;28;20029;-68
2023/05/06 05:21:05;;;;;;;9.53;5.70;;;12.40;99.90;;;;;;5058120;28;20120;-68
2023/05/06 05:23:32;;;;;;;10.98;6.07;;;12.40;99.90;;;;;;5057859;28;20520;-69
2023/05/06 05:25:58;;;;;;;8.63;5.55;;;12.50;99.90;;;;;;5058635;28;20059;-68
2023/05/06 05:28:24;;;;;;;9.70;5.60;;;12.60;99.90;;;;;;5024958;28;20044;-69
2023/05/06 05:30:51;;;;;;;13.02;5.63;;;12.60;99.90;;;;;;5057997;28;20040;-68
2023/05/06 05:33:17;;;;;;;9.18;5.70;;;12.70;99.90;;;;;;5057683;28;20135;-69
2023/05/06 05:35:44;;;;;;;8.88;5.60;;;12.80;99.90;;;;;;5041168;28;20037;-69
2023/05/06 05:38:12;;;;;;;9.27;5.13;;;12.90;99.90;;;;;;5057402;28;20029;-68
2023/05/06 05:40:39;;;;;;;10.27;5.78;;;13.00;99.90;;;;;;5058360;28;20028;-70
2023/05/06 05:43:06;;;;;;;12.02;6.35;;;13.00;99.90;;;;;;5057330;28;20102;-70
2023/05/06 05:45:36;;;;;;;9.88;5.72;;;13.00;99.90;;;;;;5057442;28;20036;-70
2023/05/06 05:48:02;;;;;;;12.30;6.43;;;13.10;99.90;;;;;;5024313;28;20044;-69
2023/05/06 05:50:28;;;;;;;12.10;6.07;;;13.20;99.90;;;;;;5057418;28;20033;-69
2023/05/06 05:52:56;;;;;;;12.35;6.20;;;13.30;99.90;;;;;;5057511;28;20028;-69
2023/05/06 05:55:23;;;;;;;10.10;6.10;;;13.30;99.90;;;;;;5057205;28;20033;-69
2023/05/06 05:57:50;;;;;;;9.57;5.40;;;13.30;99.90;;;;;;5057211;28;20029;-69
2023/05/06 06:00:18;;;;;;;14.30;6.40;;;13.30;99.90;;;;;;5057277;28;20044;-69
2023/05/06 06:02:43;;;;;;;10.88;5.50;;;13.30;99.90;;;;;;5057870;28;20044;-68
2023/05/06 06:05:11;;;;;;;10.55;5.50;;;13.30;99.90;;;;;;5056924;28;20052;-69
2023/05/06 06:07:37;;;;;;;8.52;5.28;;;13.30;99.90;;;;;;5040463;28;20047;-67
2023/05/06 06:10:03;;;;;;;10.65;5.18;;;13.20;99.90;;;;;;5040429;28;20063;-69
2023/05/06 06:12:30;;;;;;;9.63;5.40;;;13.30;99.90;;;;;;5056979;28;20032;-69
2023/05/06 06:14:56;;;;;;;8.50;5.20;;;13.30;99.90;;;;;;5056911;28;20033;-69
2023/05/06 06:17:24;;;;;;;8.88;4.57;;;13.50;99.90;;;;;;5056863;28;20037;-69
2023/05/06 06:19:56;;;;;;;8.00;5.28;;;13.50;99.90;;;;;;5040948;28;20029;-70
2023/05/06 06:22:22;;;;;;;8.88;4.90;;;13.70;99.90;;;;;;5056927;28;20029;-69
2023/05/06 06:24:49;;;;;;;9.60;5.30;;;13.80;99.90;;;;;;5056882;28;20128;-68
2023/05/06 06:27:15;;;;;;;10.50;5.18;;;13.80;99.90;;;;;;5056616;28;20151;-68
2023/05/06 06:29:41;;;;;;;7.90;4.97;;;13.80;99.90;;;;;;5055789;28;20124;-63
2023/05/06 06:32:07;;;;;;;8.50;4.43;;;13.70;99.90;;;;;;5056870;28;20097;-66
2023/05/06 06:34:33;;;;;;;8.23;4.70;;;13.60;99.90;;;;;;5057187;28;20326;-64
2023/05/06 06:36:59;;;;;;;6.85;4.57;;;13.70;99.90;;;;;;5057500;28;20067;-66
2023/05/06 06:39:24;;;;;;;8.23;4.55;;;13.90;99.90;;;;;;5057260;28;20040;-67
2023/05/06 06:41:50;;;;;;;10.27;4.72;;;14.00;99.90;;;;;;5056526;28;20033;-67
2023/05/06 06:44:16;;;;;;;7.70;5.15;;;14.10;99.90;;;;;;5057322;28;20029;-66
2023/05/06 06:46:42;;;;;;;8.65;4.60;;;14.10;99.90;;;;;;5056458;28;20040;-66
2023/05/06 06:49:08;;;;;;;8.35;4.85;;;14.20;99.90;;;;;;5056586;28;20041;-68
2023/05/06 06:51:34;;;;;;;10.30;4.70;;;14.20;99.90;;;;;;5056387;28;20033;-66
2023/05/06 06:54:00;;;;;;;8.57;4.82;;;14.30;99.90;;;;;;5023375;28;20446;-67
2023/05/06 06:56:26;;;;;;;9.35;5.25;;;14.30;99.90;;;;;;5056341;28;20040;-67
2023/05/06 06:58:51;;;;;;;11.70;5.30;;;14.40;99.90;;;;;;5056990;28;20040;-63
2023/05/06 07:01:17;;;;;;;8.75;4.97;;;14.50;99.90;;;;;;5056919;28;20029;-68
2023/05/06 07:03:43;;;;;;;11.23;5.55;;;14.80;99.90;;;;;;5055916;28;20419;-64
2023/05/06 07:06:09;;;;;;;9.98;5.47;;;14.70;99.90;;;;;;5057077;28;20299;-66
2023/05/06 07:08:35;;;;;;;11.00;5.07;;;14.90;99.90;;;;;;5057107;28;20035;-67
2023/05/06 07:11:01;;;;;;;10.93;5.75;;;14.90;99.90;;;;;;5056850;28;20183;-67
2023/05/06 07:13:27;;;;;;;8.45;5.00;;;15.00;99.10;;;;;;5056791;28;20300;-67
2023/05/06 07:15:53;;;;;;;7.32;4.68;;;15.30;99.50;;;;;;5056174;28;20041;-66
2023/05/06 07:18:19;;;;;;;10.43;5.60;;;15.60;96.30;;;;;;5056725;28;20426;-68
2023/05/06 07:20:45;;;;;;;8.80;4.68;;;15.30;93.30;;;;;;5056265;28;20025;-68
2023/05/06 07:23:10;;;;;;;8.35;4.57;;;15.40;95.80;;;;;;5056791;28;20036;-67
2023/05/06 07:25:36;;;;;;;8.05;4.95;;;15.60;95.40;;;;;;5056659;28;20040;-67
2023/05/06 07:28:02;;;;;;;9.60;5.43;;;15.70;88.70;;;;;;5055825;28;20138;-67
2023/05/06 07:30:28;;;;;;;9.15;5.13;;;15.60;90.70;;;;;;5056643;28;20072;-66
2023/05/06 07:32:54;;;;;;;8.07;4.30;;;15.80;90.00;;;;;;5055929;28;20061;-67
2023/05/06 07:35:20;;;;;;;8.30;4.70;;;16.00;81.20;;;;;;5057428;28;20051;-67
2023/05/06 07:37:46;;;;;;;7.90;4.35;;;16.30;66.90;;;;;;5022722;28;20044;-66
2023/05/06 07:40:12;;;;;;;10.27;4.55;;;16.60;66.40;;;;;;5058328;28;20074;-66
2023/05/06 07:42:40;;;;;;;9.98;4.35;;;16.80;57.50;;;;;;5060513;28;20040;-64
2023/05/06 07:45:06;;;;;;;9.32;4.32;;;16.90;43.40;;;;;;5059897;28;20404;-68
2023/05/06 07:47:32;;;;;;;7.13;4.20;;;17.00;49.80;;;;;;5060533;28;20034;-65
2023/05/06 07:49:59;;;;;;;8.57;3.78;;;17.20;32.10;;;;;;5060136;28;20037;-67
2023/05/06 07:52:25;;;;;;;8.23;3.88;;;17.10;40.00;;;;;;5059547;28;20071;-67
2023/05/06 07:54:52;;;;;;;11.02;3.88;;;17.20;35.80;;;;;;5059595;28;20040;-68
2023/05/06 07:57:18;;;;;;;7.80;3.95;;;17.50;30.50;;;;;;5060346;28;20025;-66
2023/05/06 07:59:47;;;;;;;8.40;3.53;;;17.80;23.70;;;;;;5060313;28;20120;-68
2023/05/06 08:02:14;;;;;;;7.22;3.35;;;18.00;13.60;;;;;;5060271;28;20053;-67
2023/05/06 08:04:39;;;;;;;7.03;3.35;;;18.10;7.20;;;;;;5060038;28;20045;-68
2023/05/06 08:07:06;;;;;;;5.88;3.45;;;18.10;3.50;;;;;;5059481;28;20111;-68
2023/05/06 08:09:31;;;;;;;7.32;3.97;;;18.30;1.00;;;;;;5059469;28;20322;-68
2023/05/06 08:11:57;;;;;;;5.45;3.42;;;18.20;1.00;;;;;;5059239;28;20040;-67
2023/05/06 08:14:27;;;;;;;4.68;3.08;;;18.40;1.00;;;;;;5059218;28;20040;-66
2023/05/06 08:16:53;;;;;;;5.13;3.35;;;18.60;1.00;;;;;;5059940;28;20033;-66
2023/05/06 08:19:20;;;;;;;4.53;3.33;;;18.80;1.00;;;;;;5059376;28;20094;-65
2023/05/06 08:21:47;;;;;;;4.70;3.33;;;19.00;1.00;;;;;;5059614;28;20044;-62
2023/05/06 08:24:13;;;;;;;5.50;3.50;;;18.90;1.00;;;;;;5042903;28;20274;-65
2023/05/06 08:26:40;;;;;;;5.32;3.35;;;18.00;4.10;;;;;;5059029;28;20029;-63
2023/05/06 08:29:06;;;;;;;3.95;3.10;;;17.60;18.40;;;;;;5059769;28;20300;-64
2023/05/06 08:31:32;;;;;;;5.43;3.40;;;17.90;19.30;;;;;;5059767;28;20049;-66
2023/05/06 08:33:58;;;;;;;5.47;3.10;;;18.30;13.40;;;;;;5059612;28;20061;-64
2023/05/06 08:36:24;;;;;;;8.13;3.45;;;18.70;1.00;;;;;;5059210;28;20048;-63
2023/05/06 08:38:50;;;;;;;5.47;3.42;;;19.00;1.00;;;;;;5059580;28;20022;-65
2023/05/06 08:41:20;;;;;;;5.40;3.10;;;19.50;1.00;;;;;;5059299;28;20045;-63
2023/05/06 08:43:48;;;;;;;10.82;3.08;;;19.10;1.00;;;;;;5059471;28;20471;-64
2023/05/06 08:46:15;;;;;;;4.93;3.25;;;18.80;1.00;;;;;;5075449;28;20063;-64
2023/05/06 08:48:41;;;;;;;5.22;3.17;;;18.80;1.00;;;;;;5059456;28;20047;-64
2023/05/06 08:51:07;;;;;;;4.57;2.92;;;18.50;1.00;;;;;;5058644;28;20056;-62
2023/05/06 08:53:34;;;;;;;5.32;2.92;;;18.00;6.30;;;;;;5059037;28;20040;-63
2023/05/06 08:56:05;;;;;;;5.90;2.72;;;17.90;2.50;;;;;;5059790;28;20035;-62
2023/05/06 08:58:37;;;;;;;5.70;3.10;;;18.00;11.50;;;;;;5058535;28;20033;-62
2023/05/06 09:01:03;;;;;;;3.92;2.50;;;18.10;1.00;;;;;;5059241;28;20048;-62
2023/05/06 09:03:29;;;;;;;4.63;3.15;;;18.50;1.10;;;;;;5058893;28;20041;-63
2023/05/06 09:05:56;;;;;;;6.47;3.15;;;18.70;1.00;;;;;;5059610;28;20319;-64
2023/05/06 09:08:22;;;;;;;6.68;2.78;;;19.30;1.00;;;;;;5058278;28;20114;-63
2023/05/06 09:10:48;;;;;;;4.93;2.30;;;19.20;1.00;;;;;;5059546;28;20076;-65
2023/05/06 09:13:16;;;;;;;3.63;2.60;;;19.40;1.00;;;;;;5058181;28;20047;-64
2023/05/06 09:15:43;;;;;;;6.15;2.60;;;19.60;1.00;;;;;;5058712;28;20040;-63
2023/05/06 09:18:10;;;;;;;7.70;2.90;;;19.40;1.00;;;;;;5058747;28;20102;-63
2023/05/06 09:20:44;;;;;;;4.45;2.75;;;19.30;1.00;;;;;;5058653;28;20028;-63
2023/05/06 09:23:11;;;;;;;7.55;3.20;;;19.60;1.00;;;;;;5058713;28;20265;-62
2023/05/06 09:25:38;;;;;;;5.20;2.90;;;19.30;1.00;;;;;;5057886;28;20351;-63
2023/05/06 09:28:09;;;;;;;4.93;2.88;;;19.50;1.00;;;;;;5058589;28;20033;-63
2023/05/06 09:30:40;;;;;;;5.20;2.70;;;19.20;1.00;;;;;;5058611;28;20036;-63
2023/05/06 09:33:06;;;;;;;4.70;2.53;;;19.10;1.00;;;;;;5057736;28;20033;-63
2023/05/06 09:35:38;;;;;;;4.93;2.38;;;19.20;1.00;;;;;;5058274;28;20044;-63
2023/05/06 09:38:04;;;;;;;4.78;2.17;;;19.60;1.00;;;;;;5057688;28;20029;-63
2023/05/06 09:40:31;;;;;;;3.15;1.90;;;19.60;1.00;;;;;;5058291;28;20053;-63
2023/05/06 09:42:57;;;;;;;5.53;1.83;;;19.60;1.00;;;;;;5058230;28;20415;-64
2023/05/06 09:45:23;;;;;;;3.75;2.30;;;19.10;1.00;;;;;;5058344;28;20064;-64
2023/05/06 09:47:52;;;;;;;3.10;2.10;;;19.00;1.00;;;;;;5055917;28;20036;-63
2023/05/06 09:50:21;;;;;;;4.18;2.03;;;19.10;1.00;;;;;;5057481;28;20048;-66
2023/05/06 09:52:48;;;;;;;4.03;1.50;;;19.40;1.00;;;;;;5057863;28;20183;-61
2023/05/06 09:55:17;;;;;;;4.45;2.13;;;19.30;1.00;;;;;;5058011;28;20128;-65
2023/05/06 09:57:43;;;;;;;2.80;1.80;;;19.50;1.00;;;;;;5057895;28;20021;-62
2023/05/06 10:00:13;;;;;;;4.28;2.03;;;19.90;1.00;;;;;;5057847;28;20048;-61
2023/05/06 10:02:41;;;;;;;4.90;1.90;;;19.70;1.00;;;;;;5057854;28;20396;-60
2023/05/06 10:05:09;;;;;;;5.40;2.78;;;20.10;1.00;;;;;;5073591;28;20049;-65
2023/05/06 10:07:35;;;;;;;17.85;7.35;;;20.50;1.00;;;;;;5057020;28;20044;-63
2023/05/06 10:10:03;;;;;;;7.68;3.13;;;20.30;1.00;;;;;;5057737;28;20110;-62
2023/05/06 10:12:29;;;;;;;5.63;2.40;;;20.00;1.00;;;;;;5057682;28;20029;-62
2023/05/06 10:14:55;;;;;;;4.38;2.10;;;20.10;1.00;;;;;;5057309;28;20037;-60
2023/05/06 10:17:24;;;;;;;5.70;2.00;;;20.30;1.00;;;;;;5057531;28;20092;-62
2023/05/06 10:19:54;;;;;;;3.30;1.90;;;20.90;1.00;;;;;;5057542;28;20032;-62
2023/05/06 10:22:39;;;;;;;3.85;1.83;;;20.50;1.00;;;;;;5057504;28;20021;-62
2023/05/06 10:25:15;;;;;;;3.85;1.60;;;20.60;1.00;;;;;;5058132;28;20281;-61
2023/05/06 10:27:43;;;;;;;4.53;1.70;;;20.60;99.90;;;;;;5058062;28;20304;-64
2023/05/06 10:30:10;;;;;;;8.73;3.67;;;20.70;99.90;;;;;;5057496;28;20033;-62
2023/05/06 10:32:41;;;;;;;32.40;10.82;;;20.60;99.90;;;;;;5057342;28;20033;-61
2023/05/06 10:35:45;;;;;;;7.20;3.05;;;20.60;1.00;;;;;;5057293;28;20029;-61
2023/05/06 10:38:36;;;;;;;5.20;2.00;;;20.40;99.90;;;;;;5056325;28;20051;-63
2023/05/06 10:41:02;;;;;;;4.82;1.92;;;20.90;99.90;;;;;;5056562;28;20029;-60
2023/05/06 10:43:33;;;;;;;3.05;1.70;;;20.80;99.90;;;;;;5056576;28;20025;-61
2023/05/06 10:46:12;;;;;;;3.80;1.80;;;21.40;99.90;;;;;;5057655;28;20048;-61
2023/05/06 10:49:09;;;;;;;3.90;1.80;;;21.00;94.60;;;;;;5056246;28;20281;-62
2023/05/06 10:51:42;;;;;;;4.60;2.25;;;21.50;99.90;;;;;;5056265;28;20056;-61
2023/05/06 10:54:21;;;;;;;3.60;1.88;;;21.40;1.00;;;;;;5056223;28;20082;-65
2023/05/06 10:56:47;;;;;;;5.38;2.25;;;21.00;32.60;;;;;;5052761;28;20049;-64
2023/05/06 10:59:13;;;;;;;5.70;1.98;;;21.00;99.90;;;;;;5037033;28;20017;-62
2023/05/06 11:01:43;;;;;;;4.35;1.85;;;20.80;99.90;;;;;;5037250;28;20029;-63
2023/05/06 11:04:18;;;;;;;6.00;2.10;;;21.30;99.90;;;;;;5036933;28;20375;-66
2023/05/06 11:06:49;;;;;;;3.88;1.70;;;21.30;99.90;;;;;;5036938;28;20029;-71
2023/05/06 11:09:25;;;;;;;4.03;1.85;;;21.50;5.60;;;;;;5036987;28;20040;-63
2023/05/06 11:12:01;;;;;;;3.95;2.03;;;21.30;99.90;;;;;;5036897;28;20164;-64
2023/05/06 11:14:34;;;;;;;5.78;1.85;;;21.90;1.00;;;;;;5036460;28;20086;-65
2023/05/06 11:17:02;;;;;;;2.90;1.40;;;22.50;99.90;;;;;;5036218;28;20037;-65
2023/05/06 11:19:30;;;;;;;3.22;1.35;;;21.70;1.00;;;;;;5052647;28;20262;-62
2023/05/06 11:22:02;;;;;;;4.85;1.42;;;21.90;1.00;;;;;;5036783;28;20290;-63
2023/05/06 11:24:29;;;;;;;3.40;1.60;;;21.60;1.00;;;;;;5036725;28;20030;-62
2023/05/06 11:26:56;;;;;;;3.58;1.50;;;21.90;99.90;;;;;;5036543;28;20031;-61
2023/05/06 11:29:22;;;;;;;4.05;1.40;;;22.20;1.00;;;;;;5052336;28;20030;-64
2023/05/06 11:31:49;;;;;;;4.25;1.55;;;22.60;99.90;;;;;;5036293;28;20091;-63
2023/05/06 11:34:26;;;;;;;6.32;1.42;;;22.50;99.90;;;;;;5052740;28;20053;-63
2023/05/06 11:37:04;;;;;;;2.50;1.42;;;23.40;83.20;;;;;;5036452;28;20034;-63
2023/05/06 11:39:32;;;;;;;3.50;1.70;;;24.10;17.20;;;;;;5037024;28;20040;-62
2023/05/06 11:42:02;;;;;;;3.38;1.65;;;24.80;1.00;;;;;;5035800;28;20297;-63
2023/05/06 11:44:37;;;;;;;2.97;1.40;;;24.50;1.00;;;;;;5036466;28;20025;-62
2023/05/06 11:47:04;;;;;;;3.42;1.40;;;24.50;1.00;;;;;;5036487;28;20432;-62
2023/05/06 11:49:42;;;;;;;3.13;1.40;;;24.80;99.90;;;;;;5035703;28;20328;-64
2023/05/06 11:52:09;;;;;;;3.25;1.20;;;25.20;1.00;;;;;;5036351;28;20041;-64
2023/05/06 11:54:38;;;;;;;2.90;1.20;;;25.40;1.00;;;;;;5036180;28;20116;-65
2023/05/06 11:57:04;;;;;;;5.43;1.88;;;26.40;99.90;;;;;;5067897;28;20036;-64
2023/05/06 11:59:31;;;;;;;3.03;1.70;;;25.60;99.90;;;;;;5055498;28;20112;-62
2023/05/06 12:02:01;;;;;;;2.05;1.48;;;24.60;1.00;;;;;;5055440;28;20033;-63
2023/05/06 12:04:40;;;;;;;2.95;1.40;;;25.00;99.90;;;;;;5056118;28;20045;-64
2023/05/06 12:07:07;;;;;;;3.35;1.33;;;25.40;1.00;;;;;;5055995;28;20033;-63
2023/05/06 12:09:35;;;;;;;3.67;1.50;;;25.90;1.00;;;;;;5056135;28;20033;-64
2023/05/06 12:12:03;;;;;;;3.47;1.48;;;24.30;1.00;;;;;;5056079;28;20025;-64
2023/05/06 12:14:29;;;;;;;2.00;1.50;;;23.50;99.90;;;;;;5056178;28;20120;-62
2023/05/06 12:16:55;;;;;;;3.10;1.40;;;22.70;1.00;;;;;;5038689;28;20101;-64
2023/05/06 12:19:21;;;;;;;4.82;1.83;;;22.90;1.00;;;;;;5055508;28;20412;-62
2023/05/06 12:21:47;;;;;;;5.82;1.42;;;23.20;1.00;;;;;;5055361;28;20124;-62
2023/05/06 12:24:13;;;;;;;2.83;1.58;;;23.60;99.90;;;;;;5056104;28;20033;-59
2023/05/06 12:26:47;;;;;;;2.75;1.40;;;23.30;99.90;;;;;;5057179;28;20037;-65
2023/05/06 12:29:16;;;;;;;4.03;1.40;;;24.20;95.70;;;;;;5059685;28;20360;-66
2023/05/06 12:31:43;;;;;;;2.80;1.60;;;24.90;99.90;;;;;;5059844;28;20404;-65
2023/05/06 12:34:09;;;;;;;3.08;1.17;;;24.50;1.00;;;;;;5058695;28;20060;-62
2023/05/06 12:36:40;;;;;;;3.08;1.20;;;24.20;99.90;;;;;;5058551;28;20029;-63
2023/05/06 12:39:06;;;;;;;3.92;1.60;;;25.10;1.00;;;;;;5059442;28;20304;-62
2023/05/06 12:41:45;;;;;;;3.70;1.77;;;24.70;1.00;;;;;;5059368;28;20025;-63
2023/05/06 12:44:36;;;;;;;4.50;1.45;;;24.70;1.00;;;;;;5059470;28;20078;-63
2023/05/06 12:47:02;;;;;;;2.67;1.27;;;25.20;99.90;;;;;;5075341;28;20036;-63
2023/05/06 12:49:46;;;;;;;2.60;1.02;;;24.00;99.90;;;;;;5059160;28;20028;-61
2023/05/06 12:52:12;;;;;;;3.03;1.13;;;24.20;99.90;;;;;;5059877;28;20029;-61